Time;durP1;ratioP1;P1;durP2;ratioP2;P2;SDS_P1;SDS_P2;PMS_P1;PMS_P2;Temp;Humidity;BMP_temperature;BMP_pressure;BME280_temperature;BME280_humidity;BME280_pressure;Samples;Min_cycle;Max_cycle;Signal;HPM_P1;HPM_P2
2021/05/01 00:00:13;;;;;;;19.25;17.45;;;;;;;5.99;84.86;96128.59;5072248;28;20048;-76
2021/05/01 00:02:39;;;;;;;17.63;16.10;;;;;;;6.01;84.90;96131.00;5073557;28;20047;-77
2021/05/01 00:05:07;;;;;;;19.13;17.33;;;;;;;6.05;84.67;96134.81;5074036;28;20032;-77
2021/05/01 00:07:33;;;;;;;17.83;16.02;;;;;;;6.08;84.71;96137.00;5076248;28;20044;-77
2021/05/01 00:09:59;;;;;;;18.00;16.33;;;;;;;6.10;84.58;96135.00;5077173;28;20033;-77
2021/05/01 00:12:25;;;;;;;17.23;15.68;;;;;;;6.10;84.49;96129.81;5077180;28;20500;-77
2021/05/01 00:14:52;;;;;;;17.90;16.30;;;;;;;6.09;84.66;96130.81;5077244;28;20473;-77
2021/05/01 00:17:18;;;;;;;18.30;16.67;;;;;;;6.07;84.38;96117.19;5077054;28;20040;-77
2021/05/01 00:19:44;;;;;;;17.80;16.10;;;;;;;6.08;84.30;96119.56;5076220;28;20048;-77
2021/05/01 00:22:10;;;;;;;19.48;17.50;;;;;;;6.09;84.54;96108.19;5076902;28;20067;-77
2021/05/01 00:24:49;;;;;;;19.80;17.80;;;;;;;6.03;83.79;96108.16;5076639;28;20048;-76
2021/05/01 00:27:15;;;;;;;16.42;14.93;;;;;;;5.97;83.94;96121.97;5077271;28;20388;-76
2021/05/01 00:29:46;;;;;;;17.63;16.02;;;;;;;5.97;84.29;96114.16;5061594;28;20469;-76
2021/05/01 00:32:33;;;;;;;17.52;15.93;;;;;;;5.98;84.32;96100.94;5075602;28;20495;-77
2021/05/01 00:35:10;;;;;;;17.23;15.65;;;;;;;6.00;84.40;96095.53;5077224;28;20396;-77
2021/05/01 00:37:37;;;;;;;15.95;14.45;;;;;;;6.02;84.34;96099.53;5076602;28;20032;-77
2021/05/01 00:40:06;;;;;;;17.23;15.63;;;;;;;6.04;84.22;96099.34;5076569;28;20036;-77
2021/05/01 00:42:34;;;;;;;16.80;15.25;;;;;;;6.03;84.04;96100.38;5076409;28;20029;-76
2021/05/01 00:45:00;;;;;;;15.98;14.50;;;;;;;6.02;83.80;96090.94;5076661;28;20044;-76
2021/05/01 00:47:26;;;;;;;16.73;15.23;;;;;;;6.01;83.85;96107.56;5077138;28;20124;-77
2021/05/01 00:49:52;;;;;;;16.77;15.27;;;;;;;5.99;83.58;96101.75;5075956;28;20512;-76
2021/05/01 00:52:19;;;;;;;16.30;14.80;;;;;;;5.97;83.67;96106.34;5075714;28;20449;-77
2021/05/01 00:54:45;;;;;;;15.60;14.10;;;;;;;5.96;83.49;96108.13;5075761;28;20045;-77
2021/05/01 00:57:12;;;;;;;16.10;14.68;;;;;;;5.93;83.72;96107.72;5076183;28;20407;-77
2021/05/01 00:59:38;;;;;;;17.13;15.57;;;;;;;5.90;83.53;96114.13;5075791;28;20052;-77
2021/05/01 01:02:05;;;;;;;15.80;14.50;;;;;;;5.88;83.66;96116.91;5076003;28;20036;-77
2021/05/01 01:04:32;;;;;;;16.05;14.55;;;;;;;5.88;83.66;96116.13;5076141;28;20040;-77
2021/05/01 01:06:58;;;;;;;17.77;16.05;;;;;;;5.87;83.51;96115.28;5076755;28;20396;-77
2021/05/01 01:09:25;;;;;;;17.90;16.25;;;;;;;5.82;83.35;96116.91;5076180;28;20043;-77
2021/05/01 01:11:52;;;;;;;17.35;15.75;;;;;;;5.81;83.52;96108.25;5076087;28;20044;-76
2021/05/01 01:14:18;;;;;;;16.65;15.05;;;;;;;5.82;83.70;96109.09;5075786;28;20032;-76
2021/05/01 01:16:45;;;;;;;16.77;15.25;;;;;;;5.81;83.72;96097.84;5074911;28;20037;-77
2021/05/01 01:19:13;;;;;;;17.35;15.75;;;;;;;5.83;83.73;96100.28;5075616;28;20036;-76
2021/05/01 01:21:46;;;;;;;15.90;14.50;;;;;;;5.84;83.55;96091.50;5074346;28;20040;-77
2021/05/01 01:24:13;;;;;;;17.50;15.93;;;;;;;5.86;83.54;96082.47;5074881;28;20045;-77
2021/05/01 01:26:41;;;;;;;16.38;14.88;;;;;;;5.87;83.91;96085.88;5075746;28;20043;-77
2021/05/01 01:29:08;;;;;;;17.90;16.30;;;;;;;5.90;83.93;96098.50;5075615;28;20036;-77
2021/05/01 01:31:35;;;;;;;18.33;16.63;;;;;;;5.90;83.78;96090.69;5075842;28;20041;-77
2021/05/01 01:34:03;;;;;;;18.08;16.40;;;;;;;5.90;83.64;96088.09;5075590;28;20457;-77
2021/05/01 01:36:29;;;;;;;17.58;15.77;;;;;;;5.90;83.76;96083.69;5075717;28;20040;-77
2021/05/01 01:38:55;;;;;;;18.70;17.00;;;;;;;5.93;83.76;96097.31;5075573;28;20409;-77
2021/05/01 01:41:22;;;;;;;18.25;16.55;;;;;;;5.93;83.69;96103.31;5074159;28;20037;-77
2021/05/01 01:43:48;;;;;;;18.33;16.63;;;;;;;5.96;83.70;96107.34;5075219;28;20047;-77
2021/05/01 01:46:15;;;;;;;17.50;15.80;;;;;;;5.96;83.76;96102.94;5075491;28;20477;-76
2021/05/01 01:48:42;;;;;;;20.02;18.10;;;;;;;5.98;83.48;96092.31;5074698;28;20048;-77
2021/05/01 01:51:08;;;;;;;22.75;20.42;;;;;;;5.97;83.53;96104.56;5075751;28;20491;-77
2021/05/01 01:53:34;;;;;;;19.40;17.50;;;;;;;5.91;83.42;96094.91;5075240;28;20040;-77
2021/05/01 01:56:00;;;;;;;20.25;18.35;;;;;;;5.89;83.60;96092.47;5075293;28;20392;-77
2021/05/01 01:58:27;;;;;;;20.92;18.83;;;;;;;5.84;83.67;96097.47;5075205;28;20439;-77
2021/05/01 02:00:54;;;;;;;19.27;17.48;;;;;;;5.84;84.02;96102.69;5075305;28;20378;-77
2021/05/01 02:03:27;;;;;;;;;;;;;;;5.87;84.54;96098.88;5075995;28;20477;-76
2021/05/01 02:05:53;;;;;;;19.00;17.08;;;;;;;5.89;84.05;96102.88;5074723;28;19917;-77
2021/05/01 02:08:19;;;;;;;19.63;17.58;;;;;;;5.92;84.16;96099.09;5074943;28;20424;-77
2021/05/01 02:10:46;;;;;;;19.25;17.35;;;;;;;5.95;84.22;96095.34;5074643;28;20461;-77
2021/05/01 02:13:18;;;;;;;19.40;17.58;;;;;;;5.99;84.26;96097.34;5073808;28;20220;-77
2021/05/01 02:15:45;;;;;;;20.85;18.77;;;;;;;6.02;84.13;96085.72;5074812;28;20036;-77
2021/05/01 02:18:11;;;;;;;19.65;17.85;;;;;;;6.03;84.07;96088.16;5074540;28;20036;-77
2021/05/01 02:20:38;;;;;;;18.98;17.08;;;;;;;6.05;84.02;96080.94;5074918;28;20040;-76
2021/05/01 02:23:08;;;;;;;20.08;18.27;;;;;;;6.08;84.07;96084.94;5074434;28;20031;-76
2021/05/01 02:25:40;;;;;;;19.15;17.35;;;;;;;6.10;84.08;96077.75;5073786;28;20032;-77
2021/05/01 02:28:07;;;;;;;20.13;18.23;;;;;;;6.12;83.99;96074.94;5072517;28;20484;-77
2021/05/01 02:30:33;;;;;;;19.45;17.55;;;;;;;6.13;83.80;96077.31;5074072;28;20043;-76
2021/05/01 02:33:00;;;;;;;18.75;17.05;;;;;;;6.15;83.99;96084.94;5073424;28;20059;-76
2021/05/01 02:35:29;;;;;;;20.95;18.95;;;;;;;6.16;84.22;96076.94;5074115;28;20051;-77
2021/05/01 02:37:56;;;;;;;19.30;17.50;;;;;;;6.16;83.92;96068.34;5060798;28;20040;-77
2021/05/01 02:40:23;;;;;;;19.40;17.60;;;;;;;6.17;83.99;96075.94;5073330;28;20071;-77
2021/05/01 02:42:50;;;;;;;18.67;16.90;;;;;;;6.19;83.98;96068.72;5074133;28;20036;-77
2021/05/01 02:45:19;;;;;;;19.52;17.63;;;;;;;6.20;83.99;96070.34;5074220;28;20066;-77
2021/05/01 02:47:46;;;;;;;18.23;16.52;;;;;;;6.21;83.83;96055.50;5073678;28;20487;-77
2021/05/01 02:50:15;;;;;;;19.80;17.90;;;;;;;6.20;84.04;96049.50;5074408;28;20060;-77
2021/05/01 02:52:41;;;;;;;19.10;17.33;;;;;;;6.20;83.94;96048.72;5073809;28;20032;-76
2021/05/01 02:55:09;;;;;;;19.85;17.98;;;;;;;6.21;84.15;96037.28;5073724;28;20047;-77
2021/05/01 02:57:35;;;;;;;18.52;16.70;;;;;;;6.22;84.04;96037.09;5073719;28;20044;-77
2021/05/01 03:00:15;;;;;;;19.70;17.90;;;;;;;6.21;84.12;96034.69;5074103;28;20404;-77
2021/05/01 03:02:42;;;;;;;20.25;18.15;;;;;;;6.21;84.00;96029.47;5073672;28;20048;-77
2021/05/01 03:05:11;;;;;;;21.58;19.48;;;;;;;6.21;84.28;96029.47;5074027;28;20047;-76
2021/05/01 03:07:37;;;;;;;20.10;18.10;;;;;;;6.20;84.00;96025.28;5073279;28;20048;-77
2021/05/01 03:10:09;;;;;;;19.05;17.25;;;;;;;6.19;84.09;96028.88;5072700;28;20060;-77
2021/05/01 03:12:35;;;;;;;19.58;17.70;;;;;;;6.18;84.20;96022.88;5073618;28;20457;-77
2021/05/01 03:15:04;;;;;;;16.45;14.90;;;;;;;6.16;84.31;96027.47;5073354;28;20041;-77
2021/05/01 03:17:31;;;;;;;13.82;12.52;;;;;;;6.16;83.82;96029.28;5072755;28;20044;-77
2021/05/01 03:19:57;;;;;;;12.68;11.57;;;;;;;6.16;83.18;96022.28;5074213;28;20043;-77
2021/05/01 03:22:24;;;;;;;13.95;12.75;;;;;;;6.13;83.22;96016.66;5073612;28;20044;-77
2021/05/01 03:24:50;;;;;;;16.10;14.60;;;;;;;6.12;83.63;96010.66;5073312;28;20044;-77
2021/05/01 03:27:17;;;;;;;16.55;14.95;;;;;;;6.13;83.88;96017.44;5073251;28;20037;-77
2021/05/01 03:29:43;;;;;;;16.67;15.18;;;;;;;6.12;83.87;96015.88;5073505;28;20039;-76
2021/05/01 03:32:09;;;;;;;16.70;15.10;;;;;;;6.11;83.96;96014.28;5073476;28;20040;-77
2021/05/01 03:34:35;;;;;;;15.80;14.30;;;;;;;6.10;83.74;96026.47;5073596;28;20461;-77
2021/05/01 03:37:02;;;;;;;17.05;15.45;;;;;;;6.09;83.96;96024.09;5073056;28;20047;-77
2021/05/01 03:39:28;;;;;;;16.42;14.82;;;;;;;6.07;83.77;96020.88;5073448;28;20055;-77
2021/05/01 03:41:54;;;;;;;15.20;13.75;;;;;;;6.06;83.65;96014.84;5073296;28;20042;-77
2021/05/01 03:44:21;;;;;;;16.42;14.82;;;;;;;6.07;83.94;96011.25;5073087;28;20381;-77
2021/05/01 03:46:47;;;;;;;14.88;13.57;;;;;;;6.06;83.80;96024.47;5073531;28;20037;-77
2021/05/01 03:49:13;;;;;;;15.75;14.25;;;;;;;6.03;83.43;96019.69;5072686;28;20052;-77
2021/05/01 03:51:40;;;;;;;15.00;13.60;;;;;;;6.01;83.41;96019.88;5073364;28;20048;-77
2021/05/01 03:54:06;;;;;;;13.95;12.65;;;;;;;6.04;83.74;96023.88;5072868;28;20076;-77
2021/05/01 03:56:33;;;;;;;15.73;14.13;;;;;;;6.07;83.75;96026.09;5072914;28;20052;-77
2021/05/01 03:58:59;;;;;;;16.02;14.52;;;;;;;6.10;83.83;96036.09;5072104;28;20044;-77
2021/05/01 04:01:26;;;;;;;16.10;14.50;;;;;;;6.09;83.90;96035.28;5073319;28;20037;-77
2021/05/01 04:03:52;;;;;;;16.42;14.88;;;;;;;6.13;83.84;96032.28;5072468;28;20072;-77
2021/05/01 04:06:18;;;;;;;18.50;16.80;;;;;;;6.13;83.88;96024.47;5073577;28;20043;-76
2021/05/01 04:08:44;;;;;;;18.25;16.45;;;;;;;6.14;83.71;96020.88;5073022;28;20053;-77
2021/05/01 04:11:11;;;;;;;17.45;15.77;;;;;;;6.14;83.75;96028.69;5073422;28;20037;-77
2021/05/01 04:13:44;;;;;;;18.17;16.48;;;;;;;6.14;83.67;96026.88;5060130;28;20401;-77
2021/05/01 04:16:11;;;;;;;17.92;16.13;;;;;;;6.15;83.51;96027.66;5072376;28;20045;-77
2021/05/01 04:18:37;;;;;;;18.65;16.75;;;;;;;6.15;83.47;96031.06;5072871;28;20363;-77
2021/05/01 04:21:03;;;;;;;16.05;14.65;;;;;;;6.16;83.43;96032.69;5072952;28;20048;-77
2021/05/01 04:23:29;;;;;;;15.27;13.85;;;;;;;6.15;83.22;96038.88;5072819;28;20540;-77
2021/05/01 04:25:55;;;;;;;15.52;14.02;;;;;;;6.16;83.45;96039.69;5072626;28;20044;-77
2021/05/01 04:28:22;;;;;;;15.52;14.10;;;;;;;6.16;83.30;96030.09;5073091;28;20040;-77
2021/05/01 04:30:48;;;;;;;15.13;13.73;;;;;;;6.18;83.28;96033.28;5072238;28;20048;-77
2021/05/01 04:33:14;;;;;;;15.20;13.68;;;;;;;6.18;83.08;96035.09;5072666;28;20040;-77
2021/05/01 04:35:40;;;;;;;13.90;12.60;;;;;;;6.12;82.84;96023.66;5072760;28;20044;-77
2021/05/01 04:38:06;;;;;;;14.45;13.00;;;;;;;6.02;82.38;96031.88;5072662;28;20044;-76
2021/05/01 04:40:33;;;;;;;15.15;13.63;;;;;;;6.00;82.61;96038.28;5072977;28;20380;-77
2021/05/01 04:43:04;;;;;;;15.27;13.68;;;;;;;6.02;82.68;96031.06;5072915;28;20044;-77
2021/05/01 04:45:30;;;;;;;14.60;13.20;;;;;;;6.03;82.64;96019.69;5073228;28;20048;-77
2021/05/01 04:47:57;;;;;;;14.52;13.13;;;;;;;5.96;82.15;96018.84;5072118;28;20044;-77
2021/05/01 04:50:23;;;;;;;15.15;13.73;;;;;;;5.89;82.40;96017.00;5072693;28;20044;-77
2021/05/01 04:52:49;;;;;;;13.68;12.27;;;;;;;5.88;82.78;96019.84;5074501;28;20433;-77
2021/05/01 04:55:17;;;;;;;15.15;13.65;;;;;;;5.88;82.92;96015.41;5074816;28;20048;-77
2021/05/01 04:57:47;;;;;;;13.43;12.13;;;;;;;5.88;82.87;96010.22;5076450;28;20044;-77
2021/05/01 05:00:17;;;;;;;13.88;12.52;;;;;;;5.90;82.79;96010.03;5075516;28;20469;-77
2021/05/01 05:02:45;;;;;;;14.40;13.05;;;;;;;5.89;82.78;96011.81;5075153;28;20123;-77
2021/05/01 05:05:13;;;;;;;15.88;14.32;;;;;;;5.89;82.89;96016.22;5060259;28;20037;-77
2021/05/01 05:07:39;;;;;;;14.82;13.23;;;;;;;5.91;82.73;96027.22;5076243;28;20396;-77
2021/05/01 05:10:07;;;;;;;14.15;12.77;;;;;;;5.95;83.00;96036.28;5076382;28;20377;-77
2021/05/01 05:12:34;;;;;;;14.50;13.20;;;;;;;6.01;83.33;96035.47;5076398;28;20044;-77
2021/05/01 05:15:00;;;;;;;14.75;13.25;;;;;;;6.00;82.61;96031.25;5075604;28;20036;-77
2021/05/01 05:17:27;;;;;;;16.05;14.40;;;;;;;6.03;82.71;96014.47;5076577;28;20035;-77
2021/05/01 05:19:53;;;;;;;14.82;13.40;;;;;;;6.03;82.64;96010.06;5076080;28;20044;-77
2021/05/01 05:22:20;;;;;;;14.30;12.88;;;;;;;6.06;82.78;96012.25;5075537;28;20040;-77
2021/05/01 05:24:46;;;;;;;14.70;13.20;;;;;;;6.10;82.86;96017.88;5074484;28;20052;-77
2021/05/01 05:27:12;;;;;;;14.52;13.07;;;;;;;6.13;82.94;95996.63;5075749;28;20036;-77
2021/05/01 05:29:39;;;;;;;14.52;13.13;;;;;;;6.17;82.96;95997.81;5075704;28;20048;-77
2021/05/01 05:32:06;;;;;;;15.70;14.20;;;;;;;6.20;82.92;95992.22;5075666;28;20043;-77
2021/05/01 05:34:32;;;;;;;15.13;13.50;;;;;;;6.23;82.71;95994.41;5075483;28;20040;-77
2021/05/01 05:36:58;;;;;;;15.70;14.23;;;;;;;6.26;82.74;96004.44;5074481;28;20041;-77
2021/05/01 05:39:26;;;;;;;14.55;13.20;;;;;;;6.28;82.53;96001.66;5075738;28;20040;-77
2021/05/01 05:41:52;;;;;;;15.77;14.20;;;;;;;6.28;82.48;96010.25;5075421;28;20037;-77
2021/05/01 05:44:18;;;;;;;15.18;13.77;;;;;;;6.27;81.80;96002.63;5075336;28;20044;-77
2021/05/01 05:46:44;;;;;;;14.40;13.05;;;;;;;6.19;81.38;96008.84;5075435;28;20047;-77
2021/05/01 05:49:11;;;;;;;15.90;14.30;;;;;;;6.16;81.75;96004.06;5075250;28;20056;-77
2021/05/01 05:51:37;;;;;;;16.30;14.80;;;;;;;6.14;82.01;96010.47;5074902;28;20412;-77
2021/05/01 05:54:04;;;;;;;15.13;13.70;;;;;;;6.08;81.62;96010.25;5075665;28;20048;-76
2021/05/01 05:56:30;;;;;;;16.05;14.45;;;;;;;6.07;82.01;96013.06;5074932;28;20049;-77
2021/05/01 05:58:56;;;;;;;15.77;14.27;;;;;;;5.99;81.47;96014.06;5074938;28;20442;-77
2021/05/01 06:01:26;;;;;;;16.45;14.85;;;;;;;5.88;80.83;96012.03;5075307;28;20040;-77
2021/05/01 06:03:55;;;;;;;14.73;13.32;;;;;;;5.83;81.33;96014.41;5074791;28;20040;-77
2021/05/01 06:06:33;;;;;;;14.32;12.82;;;;;;;5.85;81.75;96031.41;5074686;28;20040;-77
2021/05/01 06:09:01;;;;;;;15.00;13.57;;;;;;;5.93;82.31;96022.63;5075200;28;20503;-77
2021/05/01 06:11:28;;;;;;;16.58;15.07;;;;;;;5.99;82.42;96019.25;5074907;28;20040;-77
2021/05/01 06:14:01;;;;;;;16.90;15.20;;;;;;;6.08;82.42;96032.88;5074984;28;20041;-77
2021/05/01 06:16:29;;;;;;;15.30;13.90;;;;;;;6.13;82.28;96030.47;5074918;28;20036;-77
2021/05/01 06:18:56;;;;;;;16.50;14.90;;;;;;;6.20;82.06;96031.28;5073678;28;20045;-77
2021/05/01 06:21:23;;;;;;;15.05;13.65;;;;;;;6.23;82.00;96036.09;5074441;28;20485;-77
2021/05/01 06:23:49;;;;;;;14.70;13.38;;;;;;;6.24;81.39;96022.06;5074802;28;20469;-77
2021/05/01 06:26:15;;;;;;;14.10;12.80;;;;;;;6.27;81.25;96010.44;5074869;28;20405;-77
2021/05/01 06:28:42;;;;;;;15.00;13.55;;;;;;;6.30;81.20;96008.25;5074773;28;20033;-77
2021/05/01 06:31:08;;;;;;;14.38;13.07;;;;;;;6.37;81.04;96020.47;5074525;28;20049;-77
2021/05/01 06:33:41;;;;;;;14.27;12.90;;;;;;;6.39;80.64;96029.69;5073964;28;20476;-77
2021/05/01 06:36:12;;;;;;;12.95;11.75;;;;;;;6.40;80.41;96033.06;5074083;28;20036;-77
2021/05/01 06:38:39;;;;;;;14.23;12.93;;;;;;;6.42;80.38;96044.09;5074477;28;20044;-77
2021/05/01 06:41:08;;;;;;;14.70;13.32;;;;;;;6.43;80.34;96036.09;5073119;28;20041;-78
2021/05/01 06:43:50;;;;;;;14.98;13.48;;;;;;;6.39;79.62;96023.69;5074687;28;20043;-78
2021/05/01 06:46:20;;;;;;;15.80;14.20;;;;;;;6.36;79.88;96022.25;5074096;28;20492;-77
2021/05/01 06:48:54;;;;;;;16.15;14.55;;;;;;;6.33;79.87;96027.09;5073541;28;20045;-78
2021/05/01 06:51:20;;;;;;;16.95;15.20;;;;;;;6.25;80.20;96017.66;5072690;28;20067;-77
2021/05/01 06:53:47;;;;;;;15.35;13.88;;;;;;;6.25;80.50;96018.44;5073801;28;20032;-77
2021/05/01 06:56:14;;;;;;;17.15;15.50;;;;;;;6.30;80.53;96021.28;5073807;28;20040;-78
2021/05/01 06:58:41;;;;;;;17.75;15.73;;;;;;;6.28;79.87;96006.84;5073854;28;20040;-77
2021/05/01 07:01:10;;;;;;;16.55;14.95;;;;;;;6.33;80.08;96006.25;5073611;28;20039;-77
2021/05/01 07:03:47;;;;;;;16.63;15.02;;;;;;;6.26;79.24;96004.44;5073420;28;20032;-78
2021/05/01 07:06:18;;;;;;;17.88;16.17;;;;;;;6.24;79.70;96001.25;5072639;28;20039;-78
2021/05/01 07:08:45;;;;;;;15.77;14.30;;;;;;;6.24;79.70;96000.44;5073682;28;20044;-78
2021/05/01 07:11:12;;;;;;;16.20;14.70;;;;;;;6.28;79.74;95996.44;5073911;28;20040;-77
2021/05/01 07:13:49;;;;;;;16.17;14.68;;;;;;;6.35;80.20;95992.03;5073774;28;20040;-77
2021/05/01 07:16:16;;;;;;;16.42;14.73;;;;;;;6.35;79.69;95994.63;5072869;28;20055;-77
2021/05/01 07:18:43;;;;;;;16.50;14.88;;;;;;;6.35;80.02;96006.84;5055364;28;20488;-78
2021/05/01 07:21:11;;;;;;;15.98;14.45;;;;;;;6.41;80.27;96011.25;5073834;28;20048;-78
2021/05/01 07:23:43;;;;;;;16.02;14.52;;;;;;;6.48;80.33;96018.03;5073867;28;20040;-78
2021/05/01 07:26:13;;;;;;;15.45;13.95;;;;;;;6.55;80.31;96023.25;5074329;28;20045;-77
2021/05/01 07:28:44;;;;;;;16.50;14.80;;;;;;;6.59;80.17;96000.97;5073485;28;20052;-78
2021/05/01 07:31:18;;;;;;;15.98;14.30;;;;;;;6.64;80.35;96003.00;5074339;28;20040;-77
2021/05/01 07:33:51;;;;;;;17.08;15.45;;;;;;;6.68;80.31;96002.38;5073324;28;20028;-78
2021/05/01 07:36:27;;;;;;;15.82;14.32;;;;;;;6.70;79.36;96004.81;5072971;28;20480;-77
2021/05/01 07:38:58;;;;;;;15.35;13.75;;;;;;;6.67;79.10;96005.97;5072536;28;20465;-78
2021/05/01 07:41:27;;;;;;;15.88;14.32;;;;;;;6.66;79.24;96011.41;5073641;28;20047;-78
2021/05/01 07:43:54;;;;;;;15.40;14.00;;;;;;;6.67;79.38;96016.41;5072805;28;20044;-77
2021/05/01 07:46:23;;;;;;;13.88;12.68;;;;;;;6.64;78.95;96018.63;5073339;28;20033;-78
2021/05/01 07:48:50;;;;;;;14.77;13.40;;;;;;;6.63;79.07;96020.41;5073627;28;20052;-77
2021/05/01 07:51:17;;;;;;;16.00;14.50;;;;;;;6.67;79.43;96029.44;5072989;28;20052;-78
2021/05/01 07:53:44;;;;;;;15.15;13.75;;;;;;;6.72;79.67;96026.25;5073522;28;20028;-78
2021/05/01 07:56:11;;;;;;;15.65;14.23;;;;;;;6.78;79.50;96020.19;5072856;28;20051;-78
2021/05/01 07:58:38;;;;;;;15.18;13.73;;;;;;;6.80;79.41;96018.19;5072559;28;20033;-78
2021/05/01 08:01:04;;;;;;;15.35;13.85;;;;;;;6.83;79.16;96017.00;5072837;28;20043;-77
2021/05/01 08:03:31;;;;;;;15.63;14.23;;;;;;;6.84;79.49;96014.16;5073003;28;20049;-77
2021/05/01 08:05:57;;;;;;;16.58;15.05;;;;;;;6.87;79.47;96011.16;5072137;28;20504;-78
2021/05/01 08:08:24;;;;;;;15.95;14.40;;;;;;;6.88;79.47;96006.75;5073115;28;20043;-78
2021/05/01 08:10:50;;;;;;;17.42;15.60;;;;;;;6.88;79.68;96007.53;5072043;28;20036;-77
2021/05/01 08:13:31;;;;;;;16.10;14.60;;;;;;;6.86;79.52;96013.97;5072535;28;20049;-77
2021/05/01 08:15:57;;;;;;;16.13;14.52;;;;;;;6.88;79.58;96020.56;5072878;28;20044;-78
2021/05/01 08:18:24;;;;;;;17.42;15.75;;;;;;;6.90;79.78;96025.59;5072655;28;20052;-77
2021/05/01 08:20:50;;;;;;;17.67;15.98;;;;;;;6.93;79.85;96019.16;5072864;28;20041;-77
2021/05/01 08:23:16;;;;;;;16.83;15.18;;;;;;;6.97;79.78;96015.94;5071516;28;20404;-78
2021/05/01 08:25:43;;;;;;;18.67;16.88;;;;;;;6.97;79.21;96015.13;5072587;28;20049;-78
2021/05/01 08:28:09;;;;;;;18.05;16.35;;;;;;;6.96;79.28;96014.34;5075118;28;20049;-77
2021/05/01 08:30:36;;;;;;;18.48;16.67;;;;;;;6.95;79.52;96010.16;5075582;28;20036;-77
2021/05/01 08:33:02;;;;;;;18.13;16.42;;;;;;;6.98;79.74;96014.94;5075467;28;20046;-77
2021/05/01 08:35:29;;;;;;;18.50;16.73;;;;;;;7.01;79.72;96016.31;5076335;28;20044;-78
2021/05/01 08:37:55;;;;;;;19.90;17.90;;;;;;;7.04;79.60;96010.72;5076574;28;20051;-78
2021/05/01 08:40:35;;;;;;;19.58;17.75;;;;;;;7.06;79.58;96016.53;5076871;28;20032;-78
2021/05/01 08:43:07;;;;;;;18.75;17.05;;;;;;;7.07;79.48;96026.72;5076727;28;20036;-77
2021/05/01 08:45:33;;;;;;;20.27;18.30;;;;;;;7.10;79.46;96022.94;5076871;28;20477;-77
2021/05/01 08:48:01;;;;;;;20.40;18.40;;;;;;;7.16;79.61;96026.50;5076013;28;20057;-77
2021/05/01 08:50:30;;;;;;;20.50;18.55;;;;;;;7.22;79.61;96021.25;5076851;28;20055;-77
2021/05/01 08:52:59;;;;;;;21.02;18.92;;;;;;;7.27;79.68;96025.88;5074890;28;20029;-77
2021/05/01 08:55:27;;;;;;;21.05;18.83;;;;;;;7.31;79.68;96016.63;5076648;28;20056;-77
2021/05/01 08:57:54;;;;;;;21.65;19.55;;;;;;;7.35;79.64;96023.03;5076067;28;20408;-77
2021/05/01 09:00:21;;;;;;;20.73;18.73;;;;;;;7.35;79.42;96003.94;5074535;28;20064;-77
2021/05/01 09:02:48;;;;;;;22.05;19.83;;;;;;;7.30;79.42;96002.75;5074921;28;20039;-77
2021/05/01 09:05:15;;;;;;;21.73;19.63;;;;;;;7.27;79.35;96005.81;5075739;28;20047;-77
2021/05/01 09:07:46;;;;;;;22.88;20.58;;;;;;;7.25;79.21;96013.03;5075062;28;20044;-77
2021/05/01 09:10:13;;;;;;;19.85;18.02;;;;;;;7.22;79.53;96012.63;5076118;28;20038;-77
2021/05/01 09:12:45;;;;;;;20.42;18.38;;;;;;;7.22;79.41;96012.63;5076324;28;20037;-77
2021/05/01 09:15:27;;;;;;;21.08;18.88;;;;;;;7.24;80.11;96021.84;5076102;28;20484;-77
2021/05/01 09:18:01;;;;;;;21.90;19.58;;;;;;;7.25;80.25;96020.84;5075097;28;20059;-77
2021/05/01 09:20:27;;;;;;;;;;;;;;;7.27;79.82;96028.47;5076327;28;20036;-78
2021/05/01 09:23:05;;;;;;;19.55;17.55;;;;;;;7.24;79.85;96021.06;5075473;28;19928;-77
2021/05/01 09:26:00;;;;;;;20.75;18.65;;;;;;;7.28;79.65;96024.84;5075857;28;20043;-77
2021/05/01 09:28:39;;;;;;;20.65;18.52;;;;;;;7.31;79.82;96027.84;5074871;28;20036;-77
2021/05/01 09:31:11;;;;;;;20.17;18.25;;;;;;;7.30;79.35;96015.81;5074754;28;20040;-77
2021/05/01 09:33:39;;;;;;;20.05;18.15;;;;;;;7.34;79.70;96015.41;5061094;28;20043;-76
2021/05/01 09:36:11;;;;;;;18.40;16.65;;;;;;;7.39;79.49;96013.78;5075780;28;20415;-76
2021/05/01 09:38:50;;;;;;;17.85;16.15;;;;;;;7.46;79.57;96013.75;5075075;28;20040;-76
2021/05/01 09:41:27;;;;;;;18.10;16.27;;;;;;;7.55;79.79;96016.91;5075258;28;20400;-76
2021/05/01 09:44:03;;;;;;;17.55;15.98;;;;;;;7.59;79.37;96011.06;5067322;28;20036;-76
2021/05/01 09:46:47;;;;;;;18.58;16.88;;;;;;;7.59;79.24;96005.84;5075137;28;20044;-76
2021/05/01 09:49:20;;;;;;;18.50;16.80;;;;;;;7.61;79.33;96000.41;5075354;28;20052;-76
2021/05/01 09:51:53;;;;;;;17.77;16.10;;;;;;;7.61;79.00;95993.38;5075569;28;20044;-76
2021/05/01 09:54:43;;;;;;;18.00;16.20;;;;;;;7.66;79.97;96008.41;5072978;28;20036;-76
2021/05/01 09:57:17;;;;;;;18.63;16.83;;;;;;;7.65;79.35;95996.38;5075958;28;20040;-75
2021/05/01 09:59:54;;;;;;;18.80;17.00;;;;;;;7.66;79.62;96000.56;5075457;28;20040;-75
2021/05/01 10:02:31;;;;;;;18.85;17.00;;;;;;;7.67;79.55;95997.75;5074805;28;20051;-75
2021/05/01 10:05:03;;;;;;;19.00;17.10;;;;;;;7.68;79.49;95998.56;5074315;28;20040;-75
2021/05/01 10:07:30;;;;;;;18.80;17.05;;;;;;;7.71;79.29;96011.22;5075071;28;20028;-75
2021/05/01 10:09:58;;;;;;;19.25;17.38;;;;;;;7.70;79.27;95993.94;5074711;28;20393;-75
2021/05/01 10:12:39;;;;;;;19.85;17.95;;;;;;;7.76;79.18;96007.97;5074789;28;20043;-75
2021/05/01 10:15:25;;;;;;;19.13;17.33;;;;;;;7.76;78.80;96006.13;5073920;28;20047;-75
2021/05/01 10:17:52;;;;;;;19.90;18.00;;;;;;;7.76;79.31;96002.72;5073368;28;20232;-76
2021/05/01 10:20:19;;;;;;;18.55;16.75;;;;;;;7.73;79.14;96009.19;5075178;28;20045;-76
2021/05/01 10:22:47;;;;;;;17.23;15.65;;;;;;;7.73;79.37;96004.75;5074903;28;20024;-75
2021/05/01 10:25:26;;;;;;;17.83;16.23;;;;;;;7.78;79.67;96006.72;5074838;28;20041;-76
2021/05/01 10:30:58;;;;;;;19.75;17.92;;;;;;;7.90;80.18;96009.47;5074730;28;20396;-76
2021/05/01 10:33:32;;;;;;;16.30;14.80;;;;;;;7.96;79.24;96010.41;5073410;28;20048;-76
2021/05/01 10:36:24;;;;;;;17.48;15.80;;;;;;;8.11;79.23;96006.50;5074377;28;20033;-76
2021/05/01 10:39:07;;;;;;;17.42;15.75;;;;;;;8.28;79.69;95985.88;5074446;28;20044;-76
2021/05/01 10:41:35;;;;;;;15.23;13.88;;;;;;;8.44;79.21;95986.34;5063959;28;20469;-76
2021/05/01 10:44:09;;;;;;;16.02;14.52;;;;;;;8.57;78.63;95988.88;5074477;28;20050;-76
2021/05/01 10:46:41;;;;;;;14.65;13.35;;;;;;;8.62;78.39;95993.44;5074619;28;20047;-76
2021/05/01 10:49:10;;;;;;;14.07;12.88;;;;;;;8.63;78.14;95998.44;5059011;28;20388;-76
2021/05/01 10:51:47;;;;;;;14.15;12.85;;;;;;;8.71;78.25;95986.91;5073560;28;20044;-76
2021/05/01 10:54:21;;;;;;;13.15;11.95;;;;;;;8.81;78.40;95983.78;5063225;28;20044;-76
2021/05/01 10:56:50;;;;;;;12.95;11.85;;;;;;;8.94;77.97;95987.06;5074023;28;20036;-76
2021/05/01 10:59:21;;;;;;;13.82;12.43;;;;;;;9.00;77.49;95992.44;5074228;28;20028;-76
2021/05/01 11:01:50;;;;;;;12.70;11.60;;;;;;;9.03;77.07;95984.13;5074528;28;20041;-76
2021/05/01 11:04:26;;;;;;;13.15;11.98;;;;;;;9.05;77.03;95992.56;5073464;28;20108;-76
2021/05/01 11:07:11;;;;;;;13.60;12.40;;;;;;;8.99;72.59;95982.97;5074115;28;20031;-76
2021/05/01 11:09:41;;;;;;;;;;;;;;;8.85;74.83;95998.81;5073925;28;20055;-76
2021/05/01 11:12:15;;;;;;;12.07;10.98;;;;;;;8.76;75.91;95994.09;5073521;28;20336;-76
2021/05/01 11:14:57;;;;;;;13.10;11.90;;;;;;;8.75;76.61;95993.28;5073338;28;20040;-77
2021/05/01 11:17:23;;;;;;;11.55;10.63;;;;;;;8.80;76.84;95995.25;5061270;28;20043;-77
2021/05/01 11:20:07;;;;;;;11.38;10.48;;;;;;;8.84;76.45;95993.78;5074258;28;20365;-76
2021/05/01 11:22:35;;;;;;;10.95;10.05;;;;;;;8.92;76.70;95990.91;5065430;28;20045;-76
2021/05/01 11:25:12;;;;;;;10.73;9.82;;;;;;;8.96;76.11;95989.44;5073818;28;20488;-77
2021/05/01 11:27:45;;;;;;;10.25;9.38;;;;;;;9.03;75.97;95989.38;5073641;28;20044;-77
2021/05/01 11:30:20;;;;;;;11.45;10.45;;;;;;;9.09;76.11;95988.50;5073289;28;20392;-76
2021/05/01 11:32:47;;;;;;;11.65;10.70;;;;;;;9.11;75.93;95970.75;5061758;28;20044;-77
2021/05/01 11:35:20;;;;;;;10.82;9.93;;;;;;;9.07;74.96;95974.84;5073502;28;20033;-77
2021/05/01 11:37:51;;;;;;;12.25;11.15;;;;;;;9.06;75.32;95973.25;5073512;28;20040;-77